createdAt,value
2019-04-23T00:00:13.609Z,11.12
2019-04-23T00:03:05.818Z,12.07
2019-04-23T00:05:51.367Z,10.78
2019-04-23T00:08:16.364Z,16.37
2019-04-23T00:11:01.780Z,13.48
2019-04-23T00:13:30.435Z,18.17
2019-04-23T00:16:27.833Z,15.38
2019-04-23T00:18:46.535Z,11.43
2019-04-23T00:21:38.995Z,10.93
2019-04-23T00:24:46.129Z,9.88
2019-04-23T00:27:16.318Z,11.03
2019-04-23T00:29:48.398Z,16.12
2019-04-23T00:34:55.796Z,13.85
2019-04-23T00:37:32.713Z,12.90
2019-04-23T00:39:56.761Z,11.95
2019-04-23T00:45:10.527Z,11.33
2019-04-23T00:50:30.848Z,18.10
2019-04-23T00:52:57.586Z,13.93
2019-04-23T00:55:35.206Z,9.93
2019-04-23T00:58:12.457Z,15.60
2019-04-23T01:00:51.413Z,14.40
2019-04-23T01:03:17.435Z,15.72
2019-04-23T01:05:52.257Z,13.18
2019-04-23T01:08:29.699Z,20.68
2019-04-23T01:16:25.128Z,12.58
2019-04-23T01:18:59.591Z,11.73
2019-04-23T01:21:24.486Z,17.70
2019-04-23T01:24:12.263Z,10.43
2019-04-23T01:27:39.288Z,12.13
2019-04-23T01:30:04.684Z,14.40
2019-04-23T01:35:17.876Z,11.68
2019-04-23T01:37:41.274Z,11.88
2019-04-23T01:42:51.303Z,14.25
2019-04-23T01:47:59.674Z,10.63
2019-04-23T01:50:43.793Z,15.03
2019-04-23T01:53:24.700Z,10.75
2019-04-23T01:55:51.196Z,13.25
2019-04-23T01:58:59.220Z,13.78
2019-04-23T02:00:57.697Z,10.82
2019-04-23T02:03:36.613Z,15.15
2019-04-23T02:06:15.122Z,13.35
2019-04-23T02:08:47.128Z,10.35
2019-04-23T02:11:18.890Z,9.95
2019-04-23T02:13:56.843Z,12.13
2019-04-23T02:16:35.851Z,9.20
2019-04-23T02:19:11.472Z,13.03
2019-04-23T02:21:56.498Z,11.43
2019-04-23T02:24:27.474Z,12.70
2019-04-23T02:26:55.853Z,12.55
2019-04-23T02:29:43.435Z,9.28
2019-04-23T02:32:09.422Z,14.70
2019-04-23T02:37:36.341Z,12.70
2019-04-23T02:42:55.363Z,10.85
2019-04-23T02:45:16.767Z,12.00
2019-04-23T02:47:54.890Z,12.65
2019-04-23T02:50:36.760Z,11.43
2019-04-23T02:53:05.183Z,18.23
2019-04-23T03:06:01.050Z,15.18
2019-04-23T03:08:32.487Z,13.78
2019-04-23T03:11:26.038Z,12.70
2019-04-23T03:16:37.844Z,11.22
2019-04-23T03:19:34.071Z,11.10
2019-04-23T03:22:05.972Z,14.28
2019-04-23T03:25:10.299Z,10.95
2019-04-23T03:36:13.682Z,8.88
2019-04-23T03:38:16.562Z,11.97
2019-04-23T03:40:50.306Z,9.93
2019-04-23T03:43:25.093Z,11.80
2019-04-23T03:48:34.008Z,11.95
2019-04-23T03:51:16.280Z,12.40
2019-04-23T03:58:46.991Z,14.90
2019-04-23T04:01:29.287Z,14.03
2019-04-23T04:06:43.150Z,14.58
2019-04-23T04:11:33.503Z,10.55
2019-04-23T04:22:20.155Z,11.95
2019-04-23T04:24:43.437Z,13.30
2019-04-23T04:29:52.296Z,10.32
2019-04-23T04:32:52.459Z,13.20
2019-04-23T04:40:23.399Z,8.95
2019-04-23T04:43:04.703Z,13.08
2019-04-23T04:45:42.222Z,13.13
2019-04-23T04:48:01.334Z,18.67
2019-04-23T04:50:45.915Z,9.63
2019-04-23T04:53:30.495Z,11.25
2019-04-23T04:58:28.445Z,13.68
2019-04-23T05:03:36.175Z,11.63
2019-04-23T05:09:02.167Z,13.15
2019-04-23T05:14:06.544Z,15.93
2019-04-23T05:24:31.692Z,13.00
2019-04-23T05:26:58.469Z,12.37
2019-04-23T05:29:34.272Z,11.30
2019-04-23T05:32:09.587Z,12.90
2019-04-23T05:34:42.898Z,16.17
2019-04-23T05:37:23.350Z,11.05
2019-04-23T05:40:00.494Z,10.78
2019-04-23T05:42:30.058Z,17.20
2019-04-23T05:45:00.606Z,14.38
2019-04-23T05:47:48.252Z,10.43
2019-04-23T05:50:31.941Z,11.22
2019-04-23T05:52:53.099Z,11.57
2019-04-23T05:55:18.768Z,12.65
2019-04-23T05:58:03.706Z,14.05
2019-04-23T06:00:39.779Z,14.33
2019-04-23T06:05:54.111Z,18.12
2019-04-23T06:11:01.893Z,11.63
2019-04-23T06:13:48.072Z,9.95
2019-04-23T06:16:19.833Z,11.68
2019-04-23T06:21:30.923Z,10.43
2019-04-23T06:24:07.551Z,22.80
2019-04-23T06:29:15.499Z,14.75
2019-04-23T06:31:50.655Z,12.40
2019-04-23T06:34:27.203Z,12.50
2019-04-23T06:39:34.757Z,13.08
2019-04-23T06:42:01.997Z,12.70
2019-04-23T06:44:45.215Z,14.18
2019-04-23T06:47:23.458Z,11.22
2019-04-23T06:49:55.589Z,11.80
2019-04-23T06:52:24.810Z,11.73
2019-04-23T06:55:13.469Z,12.58
2019-04-23T06:57:33.573Z,9.98
2019-04-23T07:00:17.560Z,10.15
2019-04-23T07:02:57.041Z,9.58
2019-04-23T07:05:34.775Z,10.72
2019-04-23T07:08:02.758Z,14.38
2019-04-23T07:10:39.056Z,10.82
2019-04-23T07:13:10.459Z,8.50
2019-04-23T07:18:27.823Z,9.58
2019-04-23T07:21:02.792Z,15.70
2019-04-23T07:23:41.311Z,11.00
2019-04-23T07:26:18.247Z,11.93
2019-04-23T07:28:47.963Z,10.08
2019-04-23T07:31:22.844Z,11.60
2019-04-23T07:36:30.352Z,14.83
2019-04-23T07:42:02.904Z,12.00
2019-04-23T07:44:51.960Z,16.10
2019-04-23T07:47:32.157Z,13.80
2019-04-23T07:50:26.160Z,10.03
2019-04-23T07:53:02.990Z,10.40
2019-04-23T08:00:41.856Z,12.45
2019-04-23T08:05:39.797Z,9.03
2019-04-23T08:08:12.192Z,11.22
2019-04-23T08:13:55.619Z,11.15
2019-04-23T08:16:32.901Z,11.08
2019-04-23T08:21:40.377Z,12.75
2019-04-23T08:24:25.821Z,10.50
2019-04-23T08:29:36.429Z,11.08
2019-04-23T08:40:07.855Z,11.08
2019-04-23T08:43:05.710Z,10.85
2019-04-23T08:45:24.201Z,11.97
2019-04-23T08:50:49.046Z,13.32
2019-04-23T08:56:07.720Z,12.75
2019-04-23T08:58:34.265Z,10.25
2019-04-23T09:03:45.751Z,9.85
2019-04-23T09:06:22.213Z,10.48
2019-04-23T09:08:56.892Z,11.35
2019-04-23T09:14:27.837Z,10.60
2019-04-23T09:16:54.437Z,12.23
2019-04-23T09:19:26.657Z,16.30
2019-04-23T09:22:04.099Z,9.78
2019-04-23T09:24:33.372Z,12.53
2019-04-23T09:27:16.371Z,10.65
2019-04-23T09:29:51.604Z,11.93
2019-04-23T09:35:20.694Z,11.22
2019-04-23T09:38:16.550Z,12.63
2019-04-23T09:41:18.202Z,9.78
2019-04-23T09:44:02.764Z,14.80
2019-04-23T09:47:03.216Z,14.43
2019-04-23T09:52:07.923Z,9.83
2019-04-23T09:57:10.784Z,10.90
2019-04-23T09:59:48.945Z,12.58
2019-04-23T10:02:20.130Z,12.05
2019-04-23T10:04:48.748Z,8.68
2019-04-23T10:07:25.086Z,8.30
2019-04-23T10:09:44.756Z,9.35
2019-04-23T10:12:20.164Z,15.45
2019-04-23T10:15:07.210Z,10.45
2019-04-23T10:17:31.929Z,15.32
2019-04-23T10:20:06.753Z,11.15
2019-04-23T10:22:42.191Z,10.10
2019-04-23T10:25:17.175Z,16.55
2019-04-23T10:27:56.989Z,11.03
2019-04-23T10:30:27.002Z,12.78
2019-04-23T10:33:01.339Z,12.85
2019-04-23T10:35:46.034Z,11.48
2019-04-23T10:38:16.022Z,11.28
2019-04-23T10:40:50.056Z,15.23
2019-04-23T10:43:22.648Z,9.43
2019-04-23T10:46:26.857Z,7.72
2019-04-23T10:49:31.772Z,8.08
2019-04-23T10:52:02.593Z,7.10
2019-04-23T10:57:07.398Z,8.15
2019-04-23T10:59:44.982Z,12.43
2019-04-23T11:02:32.870Z,7.90
2019-04-23T11:04:57.478Z,11.38
2019-04-23T11:07:30.922Z,9.70
2019-04-23T11:13:21.366Z,14.45
2019-04-23T11:18:12.097Z,8.13
2019-04-23T11:20:47.993Z,12.73
2019-04-23T11:23:29.497Z,8.80
2019-04-23T11:28:38.448Z,10.18
2019-04-23T11:31:32.043Z,8.10
2019-04-23T11:34:15.164Z,12.98
2019-04-23T11:39:05.890Z,10.50
2019-04-23T11:41:51.270Z,13.53
2019-04-23T11:44:28.819Z,12.15
2019-04-23T11:47:09.394Z,8.45
2019-04-23T11:52:07.797Z,9.90
2019-04-23T11:57:29.880Z,9.65
2019-04-23T11:59:53.425Z,10.20
2019-04-23T12:02:49.697Z,10.68
2019-04-23T12:05:50.865Z,19.82
2019-04-23T12:11:46.486Z,19.05
2019-04-23T12:14:21.927Z,13.08
2019-04-23T12:17:08.500Z,12.43
2019-04-23T12:22:15.062Z,15.30
2019-04-23T12:29:46.331Z,11.68
2019-04-23T12:32:48.320Z,9.00
2019-04-23T12:40:19.986Z,11.00
2019-04-23T12:45:38.853Z,15.58
2019-04-23T12:48:15.668Z,13.53
2019-04-23T12:53:24.330Z,17.60
2019-04-23T12:58:29.397Z,10.03
2019-04-23T13:00:51.487Z,13.83
2019-04-23T13:03:37.245Z,10.00
2019-04-23T13:05:59.156Z,14.83
2019-04-23T13:08:52.047Z,16.50
2019-04-23T13:11:33.342Z,14.83
2019-04-23T13:14:00.831Z,18.00
2019-04-23T13:16:53.886Z,10.70
2019-04-23T13:19:14.594Z,16.25
2019-04-23T13:24:25.905Z,11.68
2019-04-23T13:27:02.380Z,14.90
2019-04-23T13:29:46.085Z,11.75
2019-04-23T13:32:09.429Z,13.38
2019-04-23T13:35:00.547Z,12.95
2019-04-23T13:37:33.136Z,10.63
2019-04-23T13:40:01.939Z,10.20
2019-04-23T13:42:40.282Z,16.25
2019-04-23T13:45:18.393Z,12.30
2019-04-23T13:47:57.355Z,13.22
2019-04-23T13:50:34.576Z,11.78
2019-04-23T13:55:27.896Z,14.98
2019-04-23T13:58:20.780Z,8.83
2019-04-23T14:00:58.170Z,14.28
2019-04-23T14:03:23.069Z,12.98
2019-04-23T14:06:22.845Z,20.48
2019-04-23T14:08:53.671Z,21.45
2019-04-23T14:14:08.338Z,17.85
2019-04-23T14:16:39.424Z,12.82
2019-04-23T14:19:06.797Z,16.17
2019-04-23T14:21:45.613Z,15.10
2019-04-23T14:27:02.095Z,16.93
2019-04-23T14:29:38.845Z,19.92
2019-04-23T14:32:15.958Z,14.35
2019-04-23T14:34:54.165Z,29.35
2019-04-23T14:37:17.601Z,19.75
2019-04-23T14:40:02.247Z,17.67
2019-04-23T14:42:48.135Z,15.40
2019-04-23T14:45:18.822Z,15.23
2019-04-23T14:47:54.545Z,19.95
2019-04-23T14:50:34.630Z,21.07
2019-04-23T14:53:10.609Z,20.10
2019-04-23T14:55:51.075Z,13.65
2019-04-23T14:58:18.488Z,17.87
2019-04-23T15:06:06.587Z,13.60
2019-04-23T15:08:30.360Z,13.98
2019-04-23T15:11:13.127Z,16.73
2019-04-23T15:13:36.144Z,12.98
2019-04-23T15:16:20.827Z,15.13
2019-04-23T15:19:19.920Z,17.12
2019-04-23T15:24:27.933Z,17.80
2019-04-23T15:29:20.022Z,16.65
2019-04-23T15:32:18.553Z,17.27
2019-04-23T15:34:41.368Z,17.67
2019-04-23T15:37:33.293Z,16.82
2019-04-23T15:45:11.249Z,22.32
2019-04-23T15:47:40.382Z,22.58
2019-04-23T15:55:22.159Z,19.37
2019-04-23T15:58:08.427Z,22.98
2019-04-23T16:02:43.382Z,19.50
2019-04-23T16:05:20.228Z,23.95
2019-04-23T16:08:16.870Z,26.60
2019-04-23T16:11:10.439Z,24.43
2019-04-23T16:13:44.487Z,30.20
2019-04-23T16:16:18.401Z,28.40
2019-04-23T16:19:05.713Z,24.95
2019-04-23T16:21:48.319Z,23.45
2019-04-23T16:24:12.992Z,21.93
2019-04-23T16:32:08.577Z,23.40
2019-04-23T16:35:10.912Z,16.48
2019-04-23T16:37:36.222Z,16.97
2019-04-23T16:40:13.905Z,16.85
2019-04-23T16:42:47.856Z,18.67
2019-04-23T16:47:56.553Z,50.90
2019-04-23T16:50:29.223Z,29.55
2019-04-23T16:53:11.521Z,23.70
2019-04-23T16:55:37.931Z,22.02
2019-04-23T16:58:22.539Z,22.30
2019-04-23T17:01:00.371Z,14.45
2019-04-23T17:03:28.963Z,16.95
2019-04-23T17:06:10.105Z,19.35
2019-04-23T17:08:53.097Z,22.82
2019-04-23T17:11:19.918Z,24.65
2019-04-23T17:19:11.298Z,34.35
2019-04-23T17:21:36.795Z,28.70
2019-04-23T17:29:29.434Z,25.55
2019-04-23T17:32:39.163Z,19.00
2019-04-23T17:35:11.649Z,16.85
2019-04-23T17:37:40.608Z,20.45
2019-04-23T17:40:17.793Z,20.90
2019-04-23T17:43:14.967Z,21.77
2019-04-23T17:45:44.965Z,18.62
2019-04-23T17:48:59.530Z,17.95
2019-04-23T17:51:26.159Z,17.37
2019-04-23T17:54:10.894Z,16.95
2019-04-23T17:57:01.532Z,28.80
2019-04-23T17:59:20.539Z,23.32
2019-04-23T18:02:16.575Z,21.30
2019-04-23T18:04:38.741Z,22.93
2019-04-23T18:07:08.137Z,22.42
2019-04-23T18:10:08.637Z,22.98
2019-04-23T18:12:28.954Z,26.70
2019-04-23T18:14:45.076Z,31.62
2019-04-23T18:17:35.657Z,28.70
2019-04-23T18:22:53.914Z,31.30
2019-04-23T18:28:05.273Z,22.58
2019-04-23T18:31:06.059Z,27.60
2019-04-23T18:36:08.109Z,24.95
2019-04-23T18:41:25.263Z,28.25
2019-04-23T18:44:00.820Z,22.45
2019-04-23T18:46:37.348Z,21.85
2019-04-23T18:49:05.261Z,19.52
2019-04-23T18:51:41.741Z,18.85
2019-04-23T18:54:14.868Z,19.92
2019-04-23T18:57:02.048Z,19.40
2019-04-23T18:59:43.084Z,20.08
2019-04-23T19:02:44.163Z,19.02
2019-04-23T19:05:08.447Z,22.35
2019-04-23T19:08:01.299Z,25.97
2019-04-23T19:11:05.459Z,17.00
2019-04-23T19:13:42.262Z,22.27
2019-04-23T19:16:10.028Z,17.85
2019-04-23T19:18:49.447Z,20.97
2019-04-23T19:21:36.285Z,15.55
2019-04-23T19:23:54.728Z,17.45
2019-04-23T19:26:55.191Z,15.60
2019-04-23T19:29:15.980Z,18.23
2019-04-23T19:31:55.692Z,14.75
2019-04-23T19:34:39.444Z,14.85
2019-04-23T19:37:04.174Z,15.03
2019-04-23T19:39:36.613Z,16.45
2019-04-23T19:42:11.215Z,19.05
2019-04-23T19:44:43.887Z,15.55
2019-04-23T19:47:33.169Z,14.03
2019-04-23T19:49:48.777Z,16.12
2019-04-23T19:52:52.166Z,13.22
2019-04-23T19:55:17.053Z,16.73
2019-04-23T19:57:42.646Z,16.02
2019-04-23T20:00:17.333Z,13.78
2019-04-23T20:05:23.500Z,16.70
2019-04-23T20:08:08.734Z,17.73
2019-04-23T20:10:33.059Z,17.92
2019-04-23T20:13:11.118Z,17.85
2019-04-23T20:15:59.973Z,16.52
2019-04-23T20:18:26.791Z,15.83
2019-04-23T20:20:55.013Z,15.25
2019-04-23T20:23:50.235Z,16.87
2019-04-23T20:29:19.625Z,16.23
2019-04-23T20:34:37.521Z,16.17
2019-04-23T20:37:13.945Z,14.73
2019-04-23T20:39:47.432Z,19.20
2019-04-23T20:44:53.478Z,14.60
2019-04-23T20:50:03.651Z,14.75
2019-04-23T20:52:30.170Z,18.12
2019-04-23T20:55:08.580Z,17.10
2019-04-23T20:58:01.402Z,16.85
2019-04-23T21:00:56.688Z,15.28
2019-04-23T21:03:37.666Z,17.05
2019-04-23T21:06:06.647Z,16.07
2019-04-23T21:11:36.656Z,16.82
2019-04-23T21:14:12.459Z,17.57
2019-04-23T21:16:31.043Z,14.58
2019-04-23T21:18:55.029Z,16.93
2019-04-23T21:21:46.296Z,17.32
2019-04-23T21:24:08.797Z,22.75
2019-04-23T21:26:51.810Z,21.30
2019-04-23T21:29:33.954Z,22.22
2019-04-23T21:32:08.940Z,21.87
2019-04-23T21:34:36.982Z,22.20
2019-04-23T21:37:10.878Z,21.70
2019-04-23T21:42:55.789Z,20.62
2019-04-23T21:45:30.460Z,19.62
2019-04-23T21:50:43.315Z,24.37
2019-04-23T21:53:20.321Z,26.20
2019-04-23T21:55:53.771Z,24.70
2019-04-23T21:58:38.932Z,28.70
2019-04-23T22:09:04.311Z,20.62
2019-04-23T22:16:56.915Z,23.65
2019-04-23T22:19:20.104Z,21.25
2019-04-23T22:21:55.834Z,24.75
2019-04-23T22:24:33.280Z,19.40
2019-04-23T22:27:09.757Z,24.25
2019-04-23T22:29:44.704Z,20.25
2019-04-23T22:32:25.573Z,21.27
2019-04-23T22:37:32.400Z,17.95
2019-04-23T22:40:04.676Z,17.73
2019-04-23T22:45:21.681Z,19.50
2019-04-23T22:47:56.700Z,18.40
2019-04-23T22:53:08.102Z,18.17
2019-04-23T22:55:40.358Z,15.88
2019-04-23T22:58:31.798Z,17.07
2019-04-23T23:04:24.338Z,18.98
2019-04-23T23:09:29.029Z,15.32
2019-04-23T23:14:35.414Z,16.45
2019-04-23T23:20:01.092Z,16.75
2019-04-23T23:22:21.571Z,15.08
2019-04-23T23:25:04.736Z,13.15
2019-04-23T23:27:31.638Z,15.43
2019-04-23T23:32:51.248Z,15.05
2019-04-23T23:35:24.521Z,16.10
2019-04-23T23:38:02.562Z,16.70
2019-04-23T23:40:25.866Z,12.90
2019-04-23T23:43:10.137Z,13.18
2019-04-23T23:48:14.738Z,15.10
2019-04-23T23:50:55.417Z,15.72
2019-04-23T23:53:32.970Z,15.32
2019-04-23T23:56:05.443Z,14.10
2019-04-23T23:58:41.328Z,14.98
